Time;durP1;ratioP1;P1;durP2;ratioP2;P2;SDS_P1;SDS_P2;PMS_P1;PMS_P2;Temp;Humidity;BMP_temperature;BMP_pressure;BME280_temperature;BME280_humidity;BME280_pressure;Samples;Min_cycle;Max_cycle;Signal;HPM_P1;HPM_P2
2023/06/22 00:02:06;;;;;;;12.32;11.32;;;19.80;99.90;;;20.72;100.00;97974.16;5196431;28;20599;-65
2023/06/22 00:04:39;;;;;;;11.85;10.85;;;19.80;99.90;;;20.73;100.00;97956.84;5199218;28;21036;-65
2023/06/22 00:07:12;;;;;;;12.68;11.40;;;19.70;99.90;;;20.66;100.00;97956.75;5194881;28;20226;-65
2023/06/22 00:09:46;;;;;;;11.60;10.57;;;19.70;99.90;;;20.53;100.00;97954.75;5199629;28;20313;-65
2023/06/22 00:12:19;;;;;;;12.75;11.60;;;19.60;99.90;;;20.45;100.00;97956.28;5196431;28;20225;-65
2023/06/22 00:14:52;;;;;;;13.55;12.18;;;19.60;99.90;;;20.44;100.00;97947.63;5199929;28;20236;-65
2023/06/22 00:17:25;;;;;;;11.57;10.48;;;19.60;99.90;;;20.43;100.00;97947.56;5197064;28;20655;-65
2023/06/22 00:20:00;;;;;;;11.85;10.80;;;19.50;99.90;;;20.42;100.00;97949.31;5199165;28;20299;-65
2023/06/22 00:22:38;;;;;;;12.02;11.02;;;19.50;99.90;;;20.43;100.00;97953.66;5197536;28;20601;-65
2023/06/22 00:25:13;;;;;;;12.48;11.50;;;19.50;99.90;;;20.41;100.00;97942.38;5201245;28;20233;-65
2023/06/22 00:27:46;;;;;;;12.90;11.60;;;19.50;99.90;;;20.39;100.00;97946.66;5198902;28;20271;-65
2023/06/22 00:30:20;;;;;;;13.07;11.85;;;19.50;99.90;;;20.36;100.00;97945.72;5197518;28;20218;-65
2023/06/22 00:32:53;;;;;;;13.50;12.40;;;19.50;99.90;;;20.34;100.00;97942.22;5199479;28;20787;-65
2023/06/22 00:35:29;;;;;;;13.25;12.05;;;19.50;99.90;;;20.28;100.00;97949.88;5198282;28;20291;-65
2023/06/22 00:38:04;;;;;;;12.80;11.70;;;19.40;99.90;;;20.24;100.00;97949.81;5199541;28;20229;-65
2023/06/22 00:40:38;;;;;;;13.18;11.93;;;19.30;99.90;;;20.24;100.00;97954.16;5199139;28;20712;-65
2023/06/22 00:43:12;;;;;;;12.27;11.13;;;19.40;99.90;;;20.20;100.00;97949.72;5190806;28;20271;-65
2023/06/22 00:45:45;;;;;;;11.48;10.48;;;19.30;99.90;;;20.24;100.00;97941.16;5197328;28;20261;-65
2023/06/22 00:48:19;;;;;;;12.82;11.70;;;19.30;99.90;;;20.18;100.00;97947.09;5199017;28;20685;-65
2023/06/22 00:50:53;;;;;;;11.98;10.98;;;19.30;99.90;;;20.13;100.00;97938.34;5200536;28;20628;-65
2023/06/22 00:53:26;;;;;;;11.82;10.70;;;19.30;99.90;;;20.08;100.00;97933.91;5192788;28;20230;-65
2023/06/22 00:56:03;;;;;;;11.70;10.75;;;19.20;99.90;;;20.09;100.00;97936.53;5200336;28;20725;-65
2023/06/22 00:58:37;;;;;;;11.77;10.77;;;19.20;99.90;;;20.10;100.00;97937.41;5196527;28;20291;-65
2023/06/22 01:01:10;;;;;;;11.63;10.52;;;19.20;99.90;;;20.07;100.00;97927.84;5196191;28;20559;-65
2023/06/22 01:03:43;;;;;;;12.43;11.15;;;19.20;99.90;;;20.04;100.00;97943.34;5194591;28;20249;-65
2023/06/22 01:06:27;;;;;;;12.93;11.73;;;19.20;99.90;;;20.06;100.00;97940.75;5198219;28;20327;-65
2023/06/22 01:09:09;;;;;;;11.77;10.77;;;19.20;99.90;;;19.97;100.00;97941.44;5199659;28;20753;-65
2023/06/22 01:11:48;;;;;;;12.23;11.13;;;19.10;99.90;;;19.87;100.00;97939.53;5198505;28;20234;-65
2023/06/22 01:14:27;;;;;;;11.48;10.57;;;19.00;99.90;;;19.90;100.00;97939.59;5193054;28;20603;-65
2023/06/22 01:17:02;;;;;;;12.25;11.13;;;19.00;99.90;;;19.89;100.00;97949.09;5197372;28;20229;-65
2023/06/22 01:19:46;;;;;;;12.45;11.35;;;19.10;99.90;;;19.92;100.00;97953.47;5196092;28;20236;-65
2023/06/22 01:22:22;;;;;;;11.93;10.90;;;19.10;99.90;;;19.91;100.00;97951.69;5199776;28;20221;-65
2023/06/22 01:25:08;;;;;;;10.98;10.13;;;19.10;99.90;;;19.93;100.00;97950.03;5205811;28;20274;-65
2023/06/22 01:27:57;;;;;;;12.07;11.00;;;19.10;99.90;;;19.97;100.00;97957.03;5199803;28;20271;-65
2023/06/22 01:30:33;;;;;;;12.25;11.25;;;19.10;99.90;;;19.98;100.00;97963.97;5201670;28;20240;-65
2023/06/22 01:33:12;;;;;;;12.95;11.85;;;19.10;99.90;;;19.96;100.00;97965.66;5202874;28;20780;-65
2023/06/22 01:35:45;;;;;;;11.90;10.95;;;19.00;99.90;;;19.82;100.00;97970.53;5202015;28;20275;-65
2023/06/22 01:38:19;;;;;;;12.10;10.93;;;19.00;99.90;;;19.77;100.00;97970.44;5195683;28;20639;-65
2023/06/22 01:40:52;;;;;;;12.90;11.80;;;18.90;99.90;;;19.87;100.00;97968.06;5204592;28;20222;-65
2023/06/22 01:43:27;;;;;;;12.27;11.13;;;18.90;99.90;;;19.95;100.00;97963.91;5206016;28;20658;-65
2023/06/22 01:46:03;;;;;;;12.07;10.55;;;18.90;99.90;;;19.87;100.00;97975.84;5203944;28;20229;-65
2023/06/22 01:48:36;;;;;;;12.77;11.63;;;18.90;99.90;;;19.73;100.00;97983.31;5203784;28;20275;-65
2023/06/22 01:51:09;;;;;;;12.90;11.70;;;18.80;99.90;;;19.64;100.00;97983.06;5200745;28;20776;-65
2023/06/22 01:53:42;;;;;;;12.23;11.13;;;18.70;99.90;;;19.69;100.00;97987.56;5199837;28;20217;-65
2023/06/22 01:56:19;;;;;;;12.50;11.48;;;18.70;99.90;;;19.65;100.00;97985.72;5202995;28;20237;-65
2023/06/22 01:59:01;;;;;;;11.85;10.65;;;18.70;99.90;;;19.62;100.00;97975.25;5204472;28;20245;-65
2023/06/22 02:01:44;;;;;;;12.65;11.60;;;18.70;99.90;;;19.57;100.00;97967.38;5203711;28;20225;-65
2023/06/22 02:04:24;;;;;;;11.88;10.70;;;18.70;99.90;;;19.51;100.00;97962.00;5201828;28;20741;-65
2023/06/22 02:07:00;;;;;;;12.15;10.95;;;18.70;99.90;;;19.40;100.00;97963.50;5204678;28;20225;-65
2023/06/22 02:09:36;;;;;;;12.48;11.35;;;18.60;99.90;;;19.43;100.00;97962.69;5199415;28;20815;-65
2023/06/22 02:12:12;;;;;;;11.70;10.60;;;18.60;99.90;;;19.41;100.00;97959.19;5205593;28;20283;-65
2023/06/22 02:14:47;;;;;;;13.27;12.15;;;18.60;99.90;;;19.33;100.00;97961.59;5201036;28;20320;-65
2023/06/22 02:17:22;;;;;;;12.10;11.00;;;18.60;99.90;;;19.38;100.00;97969.50;5204523;28;20233;-65
2023/06/22 02:19:55;;;;;;;12.13;11.07;;;18.50;99.90;;;19.39;100.00;97972.09;5203693;28;20229;-65
2023/06/22 02:22:28;;;;;;;12.48;11.20;;;18.60;99.90;;;19.38;100.00;97960.00;5201601;28;20230;-65
2023/06/22 02:25:01;;;;;;;12.98;11.60;;;18.60;99.90;;;19.39;100.00;97960.88;5198369;28;20256;-65
2023/06/22 02:27:34;;;;;;;12.00;11.00;;;18.60;99.90;;;19.39;100.00;97963.47;5203477;28;20221;-65
2023/06/22 02:30:09;;;;;;;12.55;11.48;;;18.60;99.90;;;19.44;100.00;97969.63;5202186;28;20251;-65
2023/06/22 02:32:44;;;;;;;12.30;11.18;;;18.50;99.90;;;19.39;100.00;97969.50;5204402;28;20229;-65
2023/06/22 02:35:17;;;;;;;11.80;10.80;;;18.50;99.90;;;19.36;100.00;97967.72;5197480;28;20593;-64
2023/06/22 02:37:51;;;;;;;12.50;11.40;;;18.50;99.90;;;19.33;100.00;97966.78;5200145;28;20262;-64
2023/06/22 02:40:25;;;;;;;12.98;11.68;;;18.50;99.90;;;19.31;100.00;97971.91;5198306;28;20331;-65
2023/06/22 02:43:02;;;;;;;12.55;11.40;;;18.50;99.90;;;19.28;100.00;97968.38;5201856;28;20218;-64
2023/06/22 02:45:35;;;;;;;11.75;10.65;;;18.40;99.90;;;19.28;100.00;97964.06;5194195;28;20233;-65
2023/06/22 02:48:11;;;;;;;12.07;10.88;;;18.40;99.90;;;19.23;100.00;97951.81;5200453;28;20713;-65
2023/06/22 02:50:44;;;;;;;12.10;11.02;;;18.40;99.90;;;19.17;100.00;97954.28;5202323;28;20221;-65
2023/06/22 02:53:17;;;;;;;11.00;10.05;;;18.30;99.90;;;19.08;100.00;97960.09;5202040;28;20221;-65
2023/06/22 02:55:50;;;;;;;11.35;10.38;;;18.20;99.90;;;19.04;100.00;97963.47;5198968;28;20231;-65
2023/06/22 02:58:24;;;;;;;11.48;10.32;;;18.20;99.90;;;19.08;100.00;97966.16;5199588;28;20245;-65
2023/06/22 03:00:57;;;;;;;12.32;11.25;;;18.20;99.90;;;19.09;100.00;97962.75;5200345;28;20225;-64
2023/06/22 03:03:31;;;;;;;12.15;10.90;;;18.20;99.90;;;19.07;100.00;97966.13;5202244;28;20628;-65
2023/06/22 03:06:05;;;;;;;11.10;10.05;;;18.20;99.90;;;19.01;100.00;97963.41;5197112;28;20229;-65
2023/06/22 03:08:38;;;;;;;12.25;11.05;;;18.20;99.90;;;18.98;100.00;97958.13;5200088;28;20257;-64
2023/06/22 03:11:11;;;;;;;11.70;10.60;;;18.20;99.90;;;18.99;100.00;97949.50;5201056;28;20612;-64
2023/06/22 03:13:45;;;;;;;11.25;10.25;;;18.20;99.90;;;19.02;100.00;97959.94;5200084;28;20225;-64
2023/06/22 03:16:18;;;;;;;13.40;12.18;;;18.20;99.90;;;18.99;100.00;97950.38;5200714;28;20221;-65
2023/06/22 03:18:54;;;;;;;12.73;11.45;;;18.10;99.90;;;18.94;100.00;97945.94;5199715;28;20311;-65
2023/06/22 03:21:29;;;;;;;12.68;11.43;;;18.10;99.90;;;18.89;100.00;97935.47;5195435;28;20236;-64
2023/06/22 03:24:03;;;;;;;12.88;11.77;;;18.10;99.90;;;18.86;100.00;97927.63;5201908;28;20217;-65
2023/06/22 03:26:36;;;;;;;12.85;11.63;;;18.00;99.90;;;18.80;100.00;97924.84;5199974;28;20252;-64
2023/06/22 03:29:09;;;;;;;11.90;10.80;;;17.90;99.90;;;18.76;100.00;97923.91;5194332;28;20242;-65
2023/06/22 03:31:42;;;;;;;12.35;11.25;;;17.90;99.90;;;18.78;100.00;97924.81;5197215;28;20283;-65
2023/06/22 03:34:17;;;;;;;13.05;11.82;;;17.90;99.90;;;18.74;100.00;97924.69;5200240;28;20664;-64
2023/06/22 03:36:50;;;;;;;13.30;11.80;;;18.00;99.90;;;18.83;100.00;97927.53;5195267;28;20232;-65
2023/06/22 03:39:23;;;;;;;13.60;12.20;;;18.10;99.90;;;18.94;100.00;97928.66;5198525;28;20253;-64
2023/06/22 03:41:56;;;;;;;13.48;11.77;;;18.10;99.90;;;18.95;100.00;97922.66;5197872;28;20226;-65
2023/06/22 03:44:29;;;;;;;13.70;12.30;;;18.20;99.90;;;18.96;100.00;97928.72;5199620;28;20225;-65
2023/06/22 03:47:03;;;;;;;13.98;12.57;;;18.20;99.90;;;19.02;100.00;97923.69;5199732;28;20225;-65
2023/06/22 03:49:37;;;;;;;12.82;11.68;;;18.20;99.90;;;19.09;100.00;97928.19;5199968;28;20214;-64
2023/06/22 03:52:10;;;;;;;13.02;11.75;;;18.30;99.90;;;19.13;100.00;97935.19;5199200;28;20225;-65
2023/06/22 03:54:43;;;;;;;13.32;12.02;;;18.30;99.90;;;19.21;100.00;97928.47;5201168;28;20230;-65
2023/06/22 03:57:16;;;;;;;12.45;11.30;;;18.30;99.90;;;19.24;100.00;97935.47;5198996;28;20228;-64
2023/06/22 03:59:51;;;;;;;13.02;11.57;;;18.40;99.90;;;19.25;100.00;97932.00;5200506;28;20253;-65
2023/06/22 04:02:24;;;;;;;12.52;11.32;;;18.30;99.90;;;19.27;100.00;97925.16;5196071;28;20240;-65
2023/06/22 04:04:58;;;;;;;12.68;11.40;;;18.30;99.90;;;19.21;100.00;97931.06;5197407;28;20231;-65
2023/06/22 04:07:36;;;;;;;12.35;11.15;;;18.30;99.90;;;19.19;100.00;97921.50;5196518;28;20226;-65
2023/06/22 04:10:10;;;;;;;12.10;11.10;;;18.30;99.90;;;19.22;100.00;97927.63;5197860;28;20224;-65
2023/06/22 04:12:45;;;;;;;11.65;10.65;;;18.40;99.90;;;19.28;100.00;97932.97;5198089;28;20232;-65
2023/06/22 04:15:18;;;;;;;12.02;10.93;;;18.50;99.90;;;19.35;100.00;97934.00;5197475;28;20698;-66
2023/06/22 04:17:51;;;;;;;14.13;11.98;;;18.50;99.90;;;19.42;100.00;97940.19;5197268;28;20225;-65
2023/06/22 04:20:26;;;;;;;12.55;11.43;;;18.60;99.90;;;19.48;100.00;97940.34;5196048;28;20237;-65
2023/06/22 04:23:02;;;;;;;12.27;11.05;;;18.60;99.90;;;19.52;100.00;97934.41;5201635;28;20225;-65
2023/06/22 04:25:35;;;;;;;12.70;11.48;;;18.70;99.90;;;19.55;100.00;97937.94;5201325;28;20264;-66
2023/06/22 04:28:12;;;;;;;13.07;11.77;;;18.70;99.90;;;19.61;100.00;97926.81;5195342;28;20287;-65
2023/06/22 04:30:47;;;;;;;12.27;11.18;;;18.80;99.90;;;19.69;100.00;97916.66;5195083;28;20272;-63
2023/06/22 04:33:20;;;;;;;13.40;12.00;;;18.90;99.90;;;19.67;100.00;97916.59;5199405;28;20649;-63
2023/06/22 04:35:54;;;;;;;12.80;11.68;;;18.90;99.90;;;19.68;100.00;97913.16;5194391;28;20241;-63
2023/06/22 04:38:28;;;;;;;11.75;10.65;;;18.90;99.90;;;19.77;100.00;97903.00;5191630;28;20766;-64
2023/06/22 04:41:03;;;;;;;11.43;10.40;;;19.00;99.90;;;19.86;100.00;97891.06;5190977;28;20230;-64
2023/06/22 04:43:36;;;;;;;11.75;10.63;;;19.10;99.90;;;20.07;100.00;97896.69;5193884;28;20290;-64
2023/06/22 04:46:09;;;;;;;12.60;11.32;;;19.30;99.90;;;20.35;100.00;97892.94;5196278;28;20230;-64
2023/06/22 04:48:42;;;;;;;13.07;11.35;;;19.70;99.90;;;20.80;98.81;97896.34;5187559;28;20295;-64
2023/06/22 04:51:21;;;;;;;13.43;12.05;;;20.20;99.90;;;21.37;95.04;97895.56;5187803;28;20270;-64
2023/06/22 04:54:00;;;;;;;13.05;11.75;;;20.70;99.90;;;21.62;93.36;97895.94;5191677;28;20316;-64
2023/06/22 04:56:34;;;;;;;12.23;10.70;;;20.90;99.90;;;22.15;90.26;97894.03;5193419;28;20230;-64
2023/06/22 04:59:07;;;;;;;12.18;10.98;;;21.40;99.90;;;22.36;87.25;97883.00;5188472;28;20217;-66
2023/06/22 05:01:41;;;;;;;12.43;11.18;;;21.70;99.90;;;22.69;85.98;97876.34;5185771;28;20226;-64
2023/06/22 05:04:14;;;;;;;11.88;10.68;;;22.00;99.90;;;22.93;84.80;97863.56;5189938;28;20313;-64
2023/06/22 05:06:49;;;;;;;14.15;11.85;;;22.10;99.90;;;23.20;82.43;97862.03;5180707;28;20285;-64
2023/06/22 05:09:23;;;;;;;11.90;10.68;;;22.50;99.90;;;23.59;80.38;97857.94;5187601;28;20594;-64
2023/06/22 05:11:57;;;;;;;12.80;11.45;;;22.80;99.90;;;23.42;80.94;97855.22;5194554;28;20547;-64
2023/06/22 05:14:30;;;;;;;10.90;9.88;;;22.70;99.90;;;23.92;79.43;97854.66;5187573;28;20234;-64
2023/06/22 05:17:13;;;;;;;10.95;9.82;;;23.00;99.90;;;24.19;77.81;97851.25;5188909;28;20268;-64
2023/06/22 05:19:49;;;;;;;11.98;10.18;;;23.10;99.90;;;24.56;75.37;97851.38;5191622;28;20249;-64
2023/06/22 05:22:23;;;;;;;10.65;9.65;;;23.60;99.90;;;24.63;74.24;97842.66;5192313;28;20791;-64
2023/06/22 05:24:56;;;;;;;11.65;10.50;;;23.90;99.90;;;24.75;72.56;97847.00;5189271;28;20249;-64
2023/06/22 05:27:29;;;;;;;10.90;9.80;;;24.00;99.90;;;25.21;73.33;97843.53;5192732;28;20228;-65
2023/06/22 05:30:02;;;;;;;11.23;10.05;;;24.10;99.90;;;25.51;70.71;97840.88;5195481;28;20229;-65
2023/06/22 05:32:36;;;;;;;10.60;9.60;;;24.30;99.90;;;25.85;69.97;97846.03;5193333;28;20229;-65
2023/06/22 05:35:10;;;;;;;11.02;9.93;;;24.50;99.90;;;26.29;67.74;97837.94;5190941;28;20586;-65
2023/06/22 05:37:44;;;;;;;10.27;9.27;;;24.80;99.90;;;26.50;65.38;97842.22;5189664;28;20255;-65
2023/06/22 05:40:18;;;;;;;9.95;9.02;;;25.10;99.90;;;26.82;63.90;97833.25;5195006;28;20243;-65
2023/06/22 05:42:51;;;;;;;10.40;9.40;;;25.30;99.90;;;26.84;63.40;97836.75;5191552;28;20582;-65
2023/06/22 05:45:24;;;;;;;11.68;9.00;;;25.20;99.90;;;26.96;63.36;97834.00;5192892;28;20229;-65
2023/06/22 05:47:57;;;;;;;9.23;8.32;;;25.10;99.90;;;26.89;63.58;97828.81;5198548;28;20224;-65
2023/06/22 05:50:30;;;;;;;9.68;8.77;;;25.20;99.90;;;26.75;63.86;97826.28;5194709;28;20742;-65
2023/06/22 05:53:06;;;;;;;9.32;8.43;;;25.10;99.90;;;27.08;63.85;97832.16;5194887;28;20693;-65
2023/06/22 05:55:40;;;;;;;8.63;7.82;;;25.40;99.90;;;27.46;62.99;97830.94;5189786;28;21296;-65
2023/06/22 05:58:14;;;;;;;8.85;7.88;;;25.80;99.90;;;27.91;60.32;97826.94;5188430;28;20263;-65
2023/06/22 06:00:47;;;;;;;9.90;8.63;;;26.00;99.90;;;28.05;58.89;97829.38;5191300;28;20229;-66
2023/06/22 06:03:23;;;;;;;7.97;7.28;;;26.10;99.90;;;28.34;58.42;97830.75;5187209;28;20220;-67
2023/06/22 06:05:56;;;;;;;9.10;8.07;;;26.20;99.90;;;28.50;58.01;97825.28;5562056;23;20222;-67
2023/06/22 06:08:31;;;;;;;8.05;7.10;;;26.50;99.90;;;28.74;57.43;97821.38;5190549;28;20603;-67
2023/06/22 06:11:04;;;;;;;7.95;7.28;;;26.70;99.90;;;29.05;54.47;97834.06;5194431;28;20225;-67
2023/06/22 06:13:37;;;;;;;7.25;6.55;;;27.10;99.90;;;28.89;54.02;97822.00;5195773;28;20221;-66
2023/06/22 06:16:10;;;;;;;7.30;6.63;;;27.00;99.90;;;28.75;54.22;97816.97;5192381;28;20221;-66
2023/06/22 06:18:43;;;;;;;7.22;6.53;;;27.20;99.90;;;29.31;54.26;97816.94;5199389;28;20236;-65
2023/06/22 06:21:16;;;;;;;7.03;6.43;;;27.50;99.90;;;29.28;53.12;97814.34;5195146;28;20605;-65
2023/06/22 06:23:51;;;;;;;7.38;6.78;;;27.20;99.90;;;29.52;53.92;97808.59;5196118;28;20299;-66
2023/06/22 06:26:29;;;;;;;7.35;6.75;;;27.40;99.90;;;29.68;50.87;97809.22;5194048;28;20252;-68
2023/06/22 06:29:03;;;;;;;7.03;6.43;;;27.70;99.90;;;29.92;50.60;97807.81;5195434;28;20225;-66
2023/06/22 06:31:36;;;;;;;7.35;6.65;;;27.70;99.90;;;30.11;50.44;97803.03;5197779;28;20704;-66
2023/06/22 06:34:09;;;;;;;6.90;6.30;;;27.90;99.90;;;30.59;49.46;97804.59;5194679;28;20275;-66
2023/06/22 06:36:42;;;;;;;6.35;5.72;;;28.30;99.90;;;31.06;48.45;97806.06;5191753;28;20241;-68
2023/06/22 06:39:17;;;;;;;6.78;6.07;;;28.80;99.90;;;31.22;46.99;97814.47;5198682;28;20263;-67
2023/06/22 06:41:50;;;;;;;6.50;5.90;;;28.90;99.80;;;31.63;46.43;97813.38;5199909;28;20649;-66
2023/06/22 06:44:23;;;;;;;6.72;6.10;;;29.30;99.30;;;31.46;46.19;97812.13;5198133;28;20237;-66
2023/06/22 06:46:56;;;;;;;7.05;6.05;;;29.00;98.60;;;31.56;46.04;97801.25;5189253;28;20326;-66
2023/06/22 06:49:29;;;;;;;7.53;5.75;;;29.00;99.00;;;31.29;46.75;97813.41;5195354;28;20275;-66
2023/06/22 06:52:02;;;;;;;6.10;5.50;;;29.00;98.80;;;31.28;46.41;97802.84;5198771;28;20236;-66
2023/06/22 06:54:36;;;;;;;6.78;5.85;;;29.00;98.10;;;31.31;45.92;97801.03;5195823;28;20272;-66
2023/06/22 06:57:13;;;;;;;5.70;5.20;;;28.90;98.50;;;31.64;45.58;97803.66;5197023;28;20225;-66
2023/06/22 06:59:46;;;;;;;6.47;5.85;;;29.30;97.50;;;31.73;44.69;97808.66;5197342;28;20428;-66
2023/06/22 07:02:20;;;;;;;6.53;5.55;;;29.50;96.70;;;32.13;44.14;97810.19;5196884;28;20601;-66
2023/06/22 07:04:55;;;;;;;6.25;5.40;;;29.90;96.50;;;32.48;42.96;97809.13;5193735;28;20225;-66
2023/06/22 07:07:28;;;;;;;7.30;5.25;;;30.10;95.80;;;32.80;42.95;97798.41;5193241;28;20275;-66
2023/06/22 07:10:02;;;;;;;7.40;5.68;;;30.50;95.20;;;32.87;42.07;97810.53;5199704;28;20250;-66
2023/06/22 07:12:38;;;;;;;6.07;5.50;;;30.50;94.80;;;32.96;42.70;97808.41;5198690;28;20220;-66
2023/06/22 07:15:12;;;;;;;5.82;5.28;;;30.70;94.90;;;32.93;43.42;97800.56;5199764;28;20232;-66
2023/06/22 07:17:45;;;;;;;6.30;5.68;;;30.50;95.40;;;32.50;42.22;97807.28;5194930;28;20611;-67
2023/06/22 07:20:19;;;;;;;6.63;5.40;;;30.40;94.20;;;32.88;42.20;97802.53;5192242;28;20228;-66
2023/06/22 07:22:52;;;;;;;6.50;5.80;;;30.40;94.40;;;32.69;42.81;97802.28;5193681;28;20217;-67
2023/06/22 07:25:27;;;;;;;5.50;5.00;;;30.50;93.90;;;33.16;41.05;97805.13;5187374;28;20229;-66
2023/06/22 07:28:03;;;;;;;6.35;4.88;;;30.70;93.60;;;33.61;40.45;97791.19;5189109;28;20236;-66
2023/06/22 07:30:36;;;;;;;5.97;5.28;;;31.00;93.40;;;33.84;40.39;97790.31;5190960;28;20244;-66
2023/06/22 07:33:09;;;;;;;6.35;5.13;;;31.20;93.00;;;33.80;40.92;97787.88;5192689;28;20225;-67
2023/06/22 07:35:42;;;;;;;5.88;5.38;;;31.30;93.50;;;33.94;40.41;97790.84;5195679;28;20237;-66
2023/06/22 07:38:16;;;;;;;5.65;5.03;;;31.50;92.60;;;33.92;39.80;97787.38;5196699;28;20705;-66
2023/06/22 07:40:53;;;;;;;6.03;4.32;;;31.70;92.00;;;33.90;39.98;97783.91;5199227;28;20228;-67
2023/06/22 07:43:26;;;;;;;5.55;4.72;;;31.60;91.90;;;34.13;39.20;97785.72;5198011;28;20263;-66
2023/06/22 07:45:59;;;;;;;4.80;4.40;;;31.90;90.80;;;33.78;37.14;97768.47;5195604;28;20571;-66
2023/06/22 07:48:32;;;;;;;6.93;4.60;;;31.60;88.70;;;33.97;38.71;97758.91;5194300;28;20621;-66
2023/06/22 07:51:07;;;;;;;6.00;4.45;;;31.70;90.50;;;34.37;37.30;97757.34;5191417;28;20221;-66
2023/06/22 07:53:41;;;;;;;5.88;4.55;;;32.10;89.90;;;34.19;38.13;97752.78;5197676;28;20660;-66
2023/06/22 07:56:18;;;;;;;4.97;4.40;;;31.90;89.80;;;33.68;38.51;97751.16;5194112;28;20224;-66
2023/06/22 07:58:53;;;;;;;7.75;4.70;;;31.30;90.10;;;34.24;37.35;97748.16;5196515;28;20735;-66
2023/06/22 08:01:26;;;;;;;5.88;4.15;;;31.70;88.20;;;34.49;36.85;97745.38;5193090;28;20763;-66
2023/06/22 08:03:59;;;;;;;6.60;4.63;;;31.90;88.40;;;34.81;35.92;97740.53;5195083;28;20717;-66
2023/06/22 08:06:32;;;;;;;6.53;4.63;;;32.20;86.60;;;34.65;35.32;97740.28;5192994;28;20680;-66
2023/06/22 08:09:05;;;;;;;7.80;4.38;;;32.10;85.70;;;35.13;35.09;97741.81;5193039;28;20598;-66
2023/06/22 08:11:39;;;;;;;7.75;4.30;;;32.70;85.30;;;34.17;35.41;97728.97;5195092;28;20709;-66
2023/06/22 08:14:13;;;;;;;6.50;4.40;;;32.20;84.00;;;34.43;35.77;97721.72;5196338;28;20562;-66
2023/06/22 08:16:46;;;;;;;5.85;4.22;;;32.10;85.30;;;34.37;35.29;97712.22;5198660;28;20236;-66
2023/06/22 08:19:19;;;;;;;5.95;4.20;;;32.40;83.50;;;34.45;35.37;97706.56;5197947;28;20232;-66
2023/06/22 08:21:52;;;;;;;5.55;4.10;;;32.20;84.20;;;34.65;35.65;97705.78;5197922;28;20324;-66
2023/06/22 08:24:25;;;;;;;5.63;3.92;;;32.20;85.10;;;34.40;34.85;97701.47;5193324;28;20287;-66
2023/06/22 08:26:59;;;;;;;6.25;4.07;;;32.30;82.60;;;34.39;35.21;97698.88;5194063;28;20233;-66
2023/06/22 08:29:32;;;;;;;5.20;4.50;;;32.50;83.40;;;33.99;36.18;97696.00;5198592;28;20609;-66
2023/06/22 08:32:07;;;;;;;6.93;4.55;;;32.50;81.60;;;34.01;35.13;97695.97;5192662;28;20229;-66
2023/06/22 08:34:42;;;;;;;6.68;4.63;;;32.60;81.40;;;33.45;35.11;97691.88;5198166;28;20235;-66
2023/06/22 08:37:15;;;;;;;4.72;3.72;;;32.50;79.70;;;32.97;37.50;97679.50;5189967;28;20356;-66
2023/06/22 08:39:48;;;;;;;6.50;4.50;;;31.80;83.40;;;33.06;38.26;97673.06;5199058;28;20271;-66
2023/06/22 08:42:23;;;;;;;7.90;4.90;;;31.90;82.70;;;33.29;38.36;97685.47;5196271;28;20657;-66
2023/06/22 08:44:57;;;;;;;7.63;5.10;;;32.10;82.90;;;32.90;36.96;97697.38;5199296;28;20228;-66
2023/06/22 08:47:30;;;;;;;6.85;4.50;;;32.20;80.10;;;33.19;36.48;97700.81;5189412;28;20218;-66
2023/06/22 08:50:03;;;;;;;8.05;4.85;;;32.20;81.60;;;33.29;37.00;97702.22;5189014;28;20232;-66
2023/06/22 08:52:37;;;;;;;5.53;4.40;;;32.50;80.60;;;33.10;38.01;97694.06;5190214;28;20705;-66
2023/06/22 08:55:11;;;;;;;7.97;4.72;;;32.10;82.90;;;32.96;37.67;97714.84;5191291;28;20220;-66
2023/06/22 08:57:46;;;;;;;6.80;4.70;;;32.10;82.60;;;33.18;37.49;97715.84;5198080;28;20217;-66
2023/06/22 09:00:20;;;;;;;9.55;5.22;;;32.00;82.30;;;33.35;38.03;97719.69;5194093;28;20228;-66
2023/06/22 09:02:55;;;;;;;9.05;5.60;;;32.20;82.50;;;33.50;38.38;97732.34;5198738;28;20239;-66
2023/06/22 09:05:29;;;;;;;8.45;5.43;;;32.40;85.70;;;33.75;37.74;97742.06;5196198;28;20225;-66
2023/06/22 09:08:03;;;;;;;9.23;5.13;;;32.70;82.60;;;33.90;36.29;97751.22;5189448;28;20217;-66
2023/06/22 09:10:36;;;;;;;8.48;5.15;;;33.00;80.80;;;34.11;36.44;97757.50;5191056;28;20217;-66
2023/06/22 09:13:10;;;;;;;7.10;5.30;;;33.00;80.20;;;34.26;36.60;97767.53;5192324;28;20774;-66
2023/06/22 09:15:43;;;;;;;8.82;5.20;;;33.20;80.00;;;34.42;36.42;97781.91;5193789;28;20232;-66
2023/06/22 09:18:17;;;;;;;8.75;5.30;;;33.30;80.80;;;34.56;36.77;97783.19;5190725;28;20418;-66
2023/06/22 09:20:50;;;;;;;8.82;5.20;;;33.60;80.90;;;34.48;35.37;97781.69;5192948;28;20267;-66
2023/06/22 09:23:23;;;;;;;6.65;4.85;;;33.80;78.40;;;34.37;36.36;97764.44;5192604;28;21011;-66
2023/06/22 09:25:56;;;;;;;9.88;5.15;;;33.40;79.60;;;34.32;35.76;97756.66;5190526;28;20252;-66
2023/06/22 09:28:30;;;;;;;6.55;4.97;;;33.20;79.10;;;34.18;36.41;97745.75;5195956;28;20791;-66
2023/06/22 09:31:04;;;;;;;7.95;5.00;;;33.30;79.50;;;34.36;36.94;97745.00;5193460;28;20220;-66
2023/06/22 09:33:37;;;;;;;6.68;5.18;;;33.40;80.90;;;34.51;35.94;97739.06;5195672;28;20231;-66
2023/06/22 09:36:10;;;;;;;9.55;4.97;;;33.50;79.00;;;34.39;35.96;97736.91;5191213;28;20598;-66
2023/06/22 09:38:44;;;;;;;10.52;5.28;;;33.40;78.50;;;34.44;37.36;97729.63;5191644;28;20271;-66
2023/06/22 09:41:17;;;;;;;7.10;4.85;;;33.40;80.80;;;34.42;37.50;97728.81;5191530;28;20652;-66
2023/06/22 09:43:51;;;;;;;7.65;5.97;;;33.30;83.00;;;34.56;35.52;97716.78;5193535;28;20743;-66
2023/06/22 09:46:28;;;;;;;8.32;5.00;;;33.40;78.30;;;34.43;35.91;97719.94;5196248;28;20294;-67
2023/06/22 09:49:01;;;;;;;8.20;5.15;;;33.50;78.20;;;34.54;36.23;97700.91;5199493;28;20221;-66
2023/06/22 09:51:35;;;;;;;7.93;5.07;;;33.60;79.60;;;34.57;37.04;97705.22;5190568;28;20214;-66
2023/06/22 09:54:08;;;;;;;10.13;5.65;;;33.70;79.90;;;34.70;36.35;97706.44;5191824;28;20284;-66
2023/06/22 09:56:41;;;;;;;9.00;5.55;;;33.90;79.20;;;34.87;35.26;97708.38;5194958;28;20323;-66
2023/06/22 09:59:15;;;;;;;6.82;5.50;;;33.90;78.50;;;35.09;35.58;97716.31;5197178;28;20259;-67
2023/06/22 10:01:51;;;;;;;8.80;5.90;;;34.10;78.70;;;35.04;35.79;97718.28;5202566;28;20216;-66
2023/06/22 10:04:24;;;;;;;8.77;5.85;;;34.10;78.20;;;35.07;36.02;97710.19;5194262;28;20583;-66
2023/06/22 10:06:58;;;;;;;10.02;5.72;;;34.20;78.90;;;35.13;35.60;97704.59;5199007;28;20303;-66
2023/06/22 10:09:31;;;;;;;10.32;6.28;;;34.10;78.00;;;35.16;35.27;97707.13;5196646;28;20604;-66
2023/06/22 10:12:04;;;;;;;11.02;5.95;;;34.10;77.80;;;35.31;35.54;97714.41;5192533;28;20702;-66
2023/06/22 10:14:39;;;;;;;9.73;6.20;;;34.40;77.70;;;35.43;35.16;97721.84;5197471;28;20228;-66
2023/06/22 10:17:12;;;;;;;7.55;5.65;;;34.50;76.90;;;35.40;35.02;97718.47;5191537;28;20244;-67
2023/06/22 10:19:45;;;;;;;9.45;6.68;;;34.40;77.70;;;35.22;35.56;97713.97;5197929;28;20229;-66
2023/06/22 10:22:18;;;;;;;9.00;6.07;;;34.10;78.40;;;35.16;35.65;97700.00;5191560;28;20228;-66
2023/06/22 10:24:52;;;;;;;9.73;6.65;;;34.10;78.80;;;35.10;35.40;97700.28;5192886;28;20275;-67
2023/06/22 10:27:25;;;;;;;9.57;6.10;;;34.00;77.90;;;35.12;35.79;97703.75;5193946;28;20697;-68
2023/06/22 10:29:59;;;;;;;7.50;6.20;;;34.20;77.80;;;34.75;35.75;97699.16;5191771;28;20249;-67
2023/06/22 10:32:32;;;;;;;10.77;6.03;;;33.70;78.00;;;34.69;35.79;97692.31;5197761;28;20310;-66
2023/06/22 10:35:07;;;;;;;9.38;6.30;;;33.50;78.30;;;34.63;36.45;97691.72;5194028;28;20765;-66
2023/06/22 10:37:42;;;;;;;9.93;6.65;;;33.50;79.40;;;34.65;36.21;97692.50;5193850;28;20255;-66
2023/06/22 10:40:18;;;;;;;9.48;6.32;;;33.40;78.70;;;34.49;36.28;97692.25;5195181;28;20220;-66